Time;durP1;ratioP1;P1;durP2;ratioP2;P2;SDS_P1;SDS_P2;PMS_P1;PMS_P2;Temp;Humidity;BMP_temperature;BMP_pressure;BME280_temperature;BME280_humidity;BME280_pressure;Samples;Min_cycle;Max_cycle;Signal;HPM_P1;HPM_P2
2023/05/03 00:02:10;;;;;;;7.57;2.28;;;;;;;-144.85;100.00;61331.59;5089647;28;33189;-63
2023/05/03 00:04:39;;;;;;;6.05;2.15;;;;;;;-144.85;100.00;61331.59;5076422;28;32383;-63
2023/05/03 00:07:07;;;;;;;4.38;2.33;;;;;;;-144.85;100.00;61331.59;5077360;28;31342;-63
2023/05/03 00:09:34;;;;;;;4.70;2.40;;;;;;;-144.85;100.00;61331.59;5085726;28;32518;-63
2023/05/03 00:12:01;;;;;;;4.40;2.28;;;;;;;-144.85;100.00;61331.59;5096893;28;32142;-63
2023/05/03 00:14:29;;;;;;;6.35;2.30;;;;;;;-144.85;100.00;61331.59;5078749;28;32020;-63
2023/05/03 00:16:56;;;;;;;3.80;2.20;;;;;;;-144.85;100.00;61331.59;5075940;28;31576;-63
2023/05/03 00:19:28;;;;;;;7.53;2.40;;;;;;;-144.85;100.00;61331.59;5090081;28;32419;-63
2023/05/03 00:21:58;;;;;;;7.63;2.28;;;;;;;-144.85;100.00;61331.59;5078416;28;33257;-63
2023/05/03 00:24:26;;;;;;;7.75;2.15;;;;;;;-144.85;100.00;61331.59;5078838;28;32008;-63
2023/05/03 00:26:54;;;;;;;4.72;2.30;;;;;;;-144.85;100.00;61331.59;5090854;22;31573;-63
2023/05/03 00:29:21;;;;;;;4.63;2.10;;;;;;;-144.85;100.00;61331.59;5096185;28;32496;-64
2023/05/03 00:31:49;;;;;;;8.18;2.33;;;;;;;-144.85;100.00;61331.59;5097473;28;33297;-63
2023/05/03 00:34:16;;;;;;;5.63;2.25;;;;;;;-144.85;100.00;61331.59;5087232;28;32945;-63
2023/05/03 00:36:43;;;;;;;5.70;2.38;;;;;;;-144.85;100.00;61331.59;5061586;28;31339;-63
2023/05/03 00:39:11;;;;;;;5.82;2.30;;;;;;;-144.85;100.00;61331.59;5075878;28;32758;-63
2023/05/03 00:41:38;;;;;;;5.22;2.33;;;;;;;-144.85;100.00;61331.59;5076686;28;32200;-63
2023/05/03 00:44:06;;;;;;;6.30;2.70;;;;;;;-144.85;100.00;61331.59;5078153;28;32032;-63
2023/05/03 00:46:34;;;;;;;7.47;2.65;;;;;;;-144.85;100.00;61331.59;5063945;28;32355;-63
2023/05/03 00:49:01;;;;;;;7.80;2.55;;;;;;;-144.85;100.00;61331.59;5067215;28;32331;-63
2023/05/03 00:51:28;;;;;;;3.97;2.33;;;;;;;-144.85;100.00;61331.59;5065545;28;32038;-63
2023/05/03 00:53:56;;;;;;;5.88;2.30;;;;;;;-144.85;100.00;61331.59;5080181;28;32130;-63
2023/05/03 00:56:24;;;;;;;4.10;2.33;;;;;;;-144.85;100.00;61331.59;5092170;28;30185;-63
2023/05/03 00:58:52;;;;;;;3.97;2.17;;;;;;;-144.85;100.00;61331.59;5082513;28;31506;-63
2023/05/03 01:01:20;;;;;;;5.22;2.67;;;;;;;-144.85;100.00;61331.59;5078291;28;32576;-63
2023/05/03 01:03:49;;;;;;;6.50;2.58;;;;;;;-144.85;100.00;61331.59;5097101;28;30759;-63
2023/05/03 01:06:19;;;;;;;5.35;2.60;;;;;;;-144.85;100.00;61331.59;5082900;28;30175;-63
2023/05/03 01:09:01;;;;;;;6.97;2.50;;;;;;;-144.85;100.00;61331.59;5075721;28;32849;-63
2023/05/03 01:11:57;;;;;;;4.00;2.20;;;;;;;-144.85;100.00;61331.59;5089408;28;32292;-63
2023/05/03 01:14:35;;;;;;;6.73;3.07;;;;;;;-144.85;100.00;61331.59;5081798;28;32006;-63
2023/05/03 01:17:11;;;;;;;5.30;2.83;;;;;;;-144.85;100.00;61331.59;5089924;28;31433;-63
2023/05/03 01:19:50;;;;;;;4.55;2.60;;;;;;;-144.85;100.00;61331.59;5086569;28;32304;-63
2023/05/03 01:22:20;;;;;;;6.15;2.67;;;;;;;-144.85;100.00;61331.59;5087025;28;33174;-63
2023/05/03 01:24:53;;;;;;;9.07;2.88;;;;;;;-144.85;100.00;61331.59;5078914;28;32701;-63
2023/05/03 01:27:20;;;;;;;7.32;2.80;;;;;;;-144.85;100.00;61331.59;5079568;28;30213;-63
2023/05/03 01:29:47;;;;;;;6.75;2.88;;;;;;;-144.85;100.00;61331.59;5079971;28;31992;-63
2023/05/03 01:32:21;;;;;;;7.80;3.65;;;;;;;-144.85;100.00;61331.59;5079453;28;30989;-63
2023/05/03 01:35:01;;;;;;;7.30;3.65;;;;;;;-144.85;100.00;61331.59;5078585;28;32736;-63
2023/05/03 01:37:29;;;;;;;6.38;3.65;;;;;;;-144.85;100.00;61331.59;5089992;28;30614;-65
2023/05/03 01:40:06;;;;;;;5.63;3.15;;;;;;;-144.85;100.00;61331.59;5083568;28;32577;-66
2023/05/03 01:42:35;;;;;;;6.18;3.15;;;;;;;-144.85;100.00;61331.59;5087870;28;30903;-65
2023/05/03 01:45:04;;;;;;;7.57;3.53;;;;;;;-144.85;100.00;61331.59;5083724;28;30596;-65
2023/05/03 01:47:31;;;;;;;5.78;3.20;;;;;;;-144.85;100.00;61331.59;5079380;28;30160;-65
2023/05/03 01:49:58;;;;;;;5.68;3.00;;;;;;;-144.85;100.00;61331.59;5079324;28;32423;-65
2023/05/03 01:52:26;;;;;;;7.32;3.10;;;;;;;-144.85;100.00;61331.59;5076566;28;33263;-65
2023/05/03 01:54:53;;;;;;;5.80;2.97;;;;;;;-144.85;100.00;61331.59;5077944;28;32255;-65
2023/05/03 01:57:20;;;;;;;6.70;3.10;;;;;;;-144.85;100.00;61331.59;5077352;28;32517;-65
2023/05/03 01:59:48;;;;;;;6.57;3.13;;;;;;;-144.85;100.00;61331.59;5078191;28;32443;-65
2023/05/03 02:02:15;;;;;;;7.93;3.13;;;;;;;-144.85;100.00;61331.59;5077854;28;31341;-65
2023/05/03 02:04:42;;;;;;;6.60;2.85;;;;;;;-144.85;100.00;61331.59;5087380;28;30684;-65
2023/05/03 02:07:09;;;;;;;6.43;3.05;;;;;;;-144.85;100.00;61331.59;5086265;28;30813;-65
2023/05/03 02:09:36;;;;;;;7.88;3.08;;;;;;;-144.85;100.00;61331.59;5059242;28;31371;-65
2023/05/03 02:12:04;;;;;;;9.57;3.10;;;;;;;-144.85;100.00;61331.59;5071639;28;32290;-65
2023/05/03 02:14:32;;;;;;;6.28;2.80;;;;;;;-144.85;100.00;61331.59;5078598;28;30828;-65
2023/05/03 02:16:59;;;;;;;5.65;2.92;;;;;;;-144.85;100.00;61331.59;5078886;28;29777;-65
2023/05/03 02:19:27;;;;;;;6.72;3.10;;;;;;;-144.85;100.00;61331.59;5078049;28;32548;-65
2023/05/03 02:21:55;;;;;;;4.82;2.83;;;;;;;-144.85;100.00;61331.59;5069778;28;30952;-65
2023/05/03 02:24:22;;;;;;;6.47;2.90;;;;;;;-144.85;100.00;61331.59;5059697;28;31511;-65
2023/05/03 02:26:50;;;;;;;5.18;2.80;;;;;;;-144.85;100.00;61331.59;5062676;28;30378;-65
2023/05/03 02:29:17;;;;;;;4.22;2.90;;;;;;;-144.85;100.00;61331.59;5079125;28;32310;-65
2023/05/03 02:31:44;;;;;;;5.35;2.92;;;;;;;-144.85;100.00;61331.59;5057216;28;31966;-65
2023/05/03 02:34:12;;;;;;;3.72;2.70;;;;;;;-144.85;100.00;61331.59;5058537;28;30613;-65
2023/05/03 02:36:39;;;;;;;7.35;2.90;;;;;;;-144.85;100.00;61331.59;5062456;28;31673;-65
2023/05/03 02:39:06;;;;;;;6.25;3.30;;;;;;;-144.85;100.00;61331.59;5088833;28;31266;-65
2023/05/03 02:41:33;;;;;;;7.22;3.10;;;;;;;-144.85;100.00;61331.59;5079501;28;33264;-66
2023/05/03 02:44:01;;;;;;;6.78;3.00;;;;;;;-144.85;100.00;61331.59;5079121;28;30889;-65
2023/05/03 02:46:28;;;;;;;7.78;3.10;;;;;;;-144.85;100.00;61331.59;5079413;28;30525;-65
2023/05/03 02:48:56;;;;;;;7.05;2.97;;;;;;;-144.85;100.00;61331.59;5078654;28;32593;-65
2023/05/03 02:51:23;;;;;;;5.93;3.20;;;;;;;-144.85;100.00;61331.59;5077850;28;32303;-65
2023/05/03 02:53:50;;;;;;;6.25;3.28;;;;;;;-144.85;100.00;61331.59;5078885;28;31770;-65
2023/05/03 02:56:18;;;;;;;9.25;2.88;;;;;;;-144.85;100.00;61331.59;5079705;28;30526;-65
2023/05/03 02:58:45;;;;;;;8.85;2.92;;;;;;;-144.85;100.00;61331.59;5078910;28;32395;-66
2023/05/03 03:01:13;;;;;;;7.30;3.22;;;;;;;-144.85;100.00;61331.59;5078266;28;31876;-66
2023/05/03 03:03:41;;;;;;;5.47;2.78;;;;;;;-144.85;100.00;61331.59;5078876;28;30969;-65
2023/05/03 03:06:09;;;;;;;6.85;3.50;;;;;;;-144.85;100.00;61331.59;5079223;28;31873;-65
2023/05/03 03:08:38;;;;;;;7.72;3.25;;;;;;;-144.85;100.00;61331.59;5064291;28;31598;-65
2023/05/03 03:11:06;;;;;;;7.97;3.20;;;;;;;-144.85;100.00;61331.59;5072419;28;31302;-65
2023/05/03 03:13:38;;;;;;;5.82;2.90;;;;;;;-144.85;100.00;61331.59;5071498;28;32063;-66
2023/05/03 03:16:06;;;;;;;7.97;3.47;;;;;;;-144.85;100.00;61331.59;5071665;28;31793;-66
2023/05/03 03:18:35;;;;;;;6.38;2.90;;;;;;;-144.85;100.00;61331.59;5070392;28;31265;-66
2023/05/03 03:21:03;;;;;;;6.30;2.80;;;;;;;-144.85;100.00;61331.59;5077597;28;31052;-65
2023/05/03 03:23:31;;;;;;;7.38;3.03;;;;;;;-144.85;100.00;61331.59;5067533;28;31618;-63
2023/05/03 03:25:59;;;;;;;7.72;2.95;;;;;;;-144.85;100.00;61331.59;5074555;28;31708;-63
2023/05/03 03:28:26;;;;;;;7.90;3.08;;;;;;;-144.85;100.00;61331.59;5068493;28;31371;-63
2023/05/03 03:30:55;;;;;;;6.07;2.75;;;;;;;-144.85;100.00;61331.59;5073222;28;32201;-63
2023/05/03 03:33:24;;;;;;;7.28;3.25;;;;;;;-144.85;100.00;61331.59;5069879;28;31667;-63
2023/05/03 03:35:57;;;;;;;6.47;2.90;;;;;;;-144.85;100.00;61331.59;5058651;28;30518;-63
2023/05/03 03:38:29;;;;;;;7.72;3.30;;;;;;;-144.85;100.00;61331.59;5070320;28;31448;-63
2023/05/03 03:41:01;;;;;;;6.38;3.20;;;;;;;-144.85;100.00;61331.59;5057629;28;32360;-63
2023/05/03 03:43:29;;;;;;;5.70;2.85;;;;;;;-144.85;100.00;61331.59;5065100;28;30934;-63
2023/05/03 03:45:57;;;;;;;5.95;3.30;;;;;;;-144.85;100.00;61331.59;5077450;28;31789;-63
2023/05/03 03:48:25;;;;;;;6.70;3.40;;;;;;;-144.85;100.00;61331.59;5078116;28;31408;-63
2023/05/03 03:50:52;;;;;;;7.95;3.63;;;;;;;-144.85;100.00;61331.59;5077553;28;31033;-63
2023/05/03 03:53:24;;;;;;;6.47;3.15;;;;;;;-144.85;100.00;61331.59;5072636;28;30809;-63
2023/05/03 03:55:51;;;;;;;6.72;3.03;;;;;;;-144.85;100.00;61331.59;5067999;28;31112;-63
2023/05/03 03:58:19;;;;;;;5.28;3.10;;;;;;;-144.85;100.00;61331.59;5061413;28;32887;-63
2023/05/03 04:00:46;;;;;;;6.35;3.65;;;;;;;-144.85;100.00;61331.59;5075533;28;32184;-63
2023/05/03 04:03:17;;;;;;;5.70;3.30;;;;;;;-144.85;100.00;61331.59;5077159;28;30802;-63
2023/05/03 04:05:44;;;;;;;6.07;3.00;;;;;;;-144.85;100.00;61331.59;5072940;28;30402;-63
2023/05/03 04:08:12;;;;;;;7.95;3.00;;;;;;;-144.85;100.00;61331.59;5067706;28;31357;-63
2023/05/03 04:10:40;;;;;;;7.15;3.28;;;;;;;-144.85;100.00;61331.59;5060910;28;30979;-63
2023/05/03 04:13:08;;;;;;;5.88;2.53;;;;;;;-144.85;100.00;61331.59;5057213;28;31773;-63
2023/05/03 04:15:35;;;;;;;6.78;3.00;;;;;;;-144.85;100.00;61331.59;5073045;28;31438;-63
2023/05/03 04:18:04;;;;;;;9.95;3.20;;;;;;;-144.85;100.00;61331.59;5077869;28;32237;-63
2023/05/03 04:20:34;;;;;;;7.10;3.10;;;;;;;-144.85;100.00;61331.59;5077941;28;32116;-63
2023/05/03 04:23:03;;;;;;;7.88;3.10;;;;;;;-144.85;100.00;61331.59;5051292;28;30707;-63
2023/05/03 04:25:31;;;;;;;7.55;2.90;;;;;;;-144.85;100.00;61331.59;5067434;28;30355;-63
2023/05/03 04:28:05;;;;;;;7.07;3.17;;;;;;;-144.85;100.00;61331.59;5081037;28;31143;-65
2023/05/03 04:30:34;;;;;;;6.43;2.92;;;;;;;-144.85;100.00;61331.59;5080733;28;31079;-66
2023/05/03 04:33:02;;;;;;;5.13;2.80;;;;;;;-144.85;100.00;61331.59;5080824;28;30756;-65
2023/05/03 04:35:33;;;;;;;6.70;3.20;;;;;;;-144.85;100.00;61331.59;5080806;28;30452;-65
2023/05/03 04:38:04;;;;;;;5.93;3.05;;;;;;;-144.85;100.00;61331.59;5080740;28;32278;-65
2023/05/03 04:40:33;;;;;;;4.75;2.85;;;;;;;-144.85;100.00;61331.59;5073159;28;31075;-65
2023/05/03 04:43:05;;;;;;;5.95;2.97;;;;;;;-144.85;100.00;61331.59;5061193;28;32189;-65
2023/05/03 04:45:37;;;;;;;6.30;3.20;;;;;;;-144.85;100.00;61331.59;5060965;28;30462;-65
2023/05/03 04:48:06;;;;;;;8.00;3.00;;;;;;;-144.85;100.00;61331.59;5061626;28;31361;-65
2023/05/03 04:50:35;;;;;;;5.85;3.33;;;;;;;-144.85;100.00;61331.59;5071336;28;31445;-65
2023/05/03 04:53:03;;;;;;;5.93;3.20;;;;;;;-144.85;100.00;61331.59;5060711;28;30818;-65
2023/05/03 04:55:33;;;;;;;9.00;3.50;;;;;;;-144.85;100.00;61331.59;5068034;28;31670;-63
2023/05/03 04:58:03;;;;;;;7.13;3.35;;;;;;;-144.85;100.00;61331.59;5080567;28;31101;-63
2023/05/03 05:00:30;;;;;;;9.07;3.63;;;;;;;-144.85;100.00;61331.59;5080046;28;30854;-65
2023/05/03 05:03:04;;;;;;;8.80;3.50;;;;;;;-144.85;100.00;61331.59;5080204;28;30973;-65
2023/05/03 05:05:35;;;;;;;5.80;3.45;;;;;;;-144.85;100.00;61331.59;5077603;28;31910;-65
2023/05/03 05:08:03;;;;;;;5.13;2.40;;;;;;;-144.85;100.00;61331.59;5070269;28;31487;-66
2023/05/03 05:10:45;;;;;;;6.72;2.92;;;;;;;-144.85;100.00;61331.59;5064043;28;31039;-65
2023/05/03 05:13:16;;;;;;;6.32;3.00;;;;;;;-144.85;100.00;61331.59;5060612;28;31160;-65
2023/05/03 05:15:43;;;;;;;5.88;3.03;;;;;;;-144.85;100.00;61331.59;5076841;28;30418;-65
2023/05/03 05:18:12;;;;;;;8.65;3.35;;;;;;;-144.85;100.00;61331.59;5080631;28;32757;-65
2023/05/03 05:20:41;;;;;;;5.45;2.85;;;;;;;-144.85;100.00;61331.59;5079793;28;30988;-65
2023/05/03 05:23:09;;;;;;;6.63;3.00;;;;;;;-144.85;100.00;61331.59;5080463;28;31809;-65
2023/05/03 05:25:40;;;;;;;9.48;3.63;;;;;;;-144.85;100.00;61331.59;5094772;28;30500;-65
2023/05/03 05:28:08;;;;;;;6.63;3.55;;;;;;;-144.85;100.00;61331.59;5080585;28;32260;-65
2023/05/03 05:30:36;;;;;;;6.50;3.65;;;;;;;-144.85;100.00;61331.59;5067044;28;31219;-65
2023/05/03 05:33:03;;;;;;;6.45;3.05;;;;;;;-144.85;100.00;61331.59;5077576;28;30780;-65
2023/05/03 05:35:32;;;;;;;12.85;3.83;;;;;;;-144.85;100.00;61331.59;5071650;28;30497;-65
2023/05/03 05:37:59;;;;;;;7.70;3.38;;;;;;;-144.85;100.00;61331.59;5075302;28;33546;-65
2023/05/03 05:40:28;;;;;;;6.20;3.42;;;;;;;-144.85;100.00;61331.59;5060337;28;31368;-65
2023/05/03 05:42:57;;;;;;;7.18;3.10;;;;;;;-144.85;100.00;61331.59;5076363;28;31492;-63
2023/05/03 05:45:27;;;;;;;8.80;3.70;;;;;;;-144.85;100.00;61331.59;5080596;28;30877;-63
2023/05/03 05:47:56;;;;;;;7.28;3.50;;;;;;;-144.85;100.00;61331.59;5078365;28;31497;-65
2023/05/03 05:50:23;;;;;;;6.75;3.50;;;;;;;-144.85;100.00;61331.59;5060170;28;32289;-65
2023/05/03 05:52:56;;;;;;;6.65;3.38;;;;;;;-144.85;100.00;61331.59;5059885;28;31141;-65
2023/05/03 05:55:26;;;;;;;6.63;3.80;;;;;;;-144.85;100.00;61331.59;5059244;28;30454;-63
2023/05/03 05:57:55;;;;;;;7.25;3.70;;;;;;;-144.85;100.00;61331.59;5059470;28;32285;-63
2023/05/03 06:00:29;;;;;;;7.07;3.50;;;;;;;-144.85;100.00;61331.59;5073590;28;30922;-63
2023/05/03 06:02:56;;;;;;;7.63;3.83;;;;;;;-144.85;100.00;61331.59;5069003;28;31793;-63
2023/05/03 06:05:23;;;;;;;8.30;3.70;;;;;;;-144.85;100.00;61331.59;5065264;28;31579;-66
2023/05/03 06:07:51;;;;;;;8.18;3.63;;;;;;;-144.85;100.00;61331.59;5065522;28;32695;-63
2023/05/03 06:10:18;;;;;;;11.35;3.67;;;;;;;-144.85;100.00;61331.59;5078720;28;32364;-63
2023/05/03 06:12:50;;;;;;;8.15;3.83;;;;;;;-144.85;100.00;61331.59;5078736;28;30848;-63
2023/05/03 06:15:21;;;;;;;16.55;4.18;;;;;;;-144.85;100.00;61331.59;5079261;28;30426;-63
2023/05/03 06:17:49;;;;;;;8.50;3.58;;;;;;;-144.85;100.00;61331.59;5078286;28;32565;-63
2023/05/03 06:20:17;;;;;;;7.28;3.40;;;;;;;-144.85;100.00;61331.59;5062592;28;31042;-63
2023/05/03 06:22:45;;;;;;;8.43;3.45;;;;;;;-144.85;100.00;61331.59;5058045;28;30811;-63
2023/05/03 06:25:13;;;;;;;8.15;3.63;;;;;;;-144.85;100.00;61331.59;5058121;28;32069;-63
2023/05/03 06:27:45;;;;;;;5.72;3.10;;;;;;;-144.85;100.00;61331.59;5076900;28;31509;-63
2023/05/03 06:30:13;;;;;;;7.38;2.97;;;;;;;-144.85;100.00;61331.59;5079015;28;31153;-63
2023/05/03 06:32:42;;;;;;;6.35;3.30;;;;;;;-144.85;100.00;61331.59;5064091;28;31713;-63
2023/05/03 06:35:11;;;;;;;6.78;3.47;;;;;;;-144.85;100.00;61331.59;5067697;28;30462;-63
2023/05/03 06:37:39;;;;;;;8.73;3.50;;;;;;;-144.85;100.00;61331.59;5064504;28;31688;-63
2023/05/03 06:40:07;;;;;;;6.97;2.95;;;;;;;-144.85;100.00;61331.59;5077790;28;33275;-63
2023/05/03 06:42:36;;;;;;;7.65;3.22;;;;;;;-144.85;100.00;61331.59;5077159;28;32885;-63
2023/05/03 06:45:18;;;;;;;8.00;3.78;;;;;;;-144.85;100.00;61331.59;5079682;28;30427;-63
2023/05/03 06:47:45;;;;;;;6.03;3.47;;;;;;;-144.85;100.00;61331.59;5079910;28;31297;-63
2023/05/03 06:50:12;;;;;;;6.20;3.60;;;;;;;-144.85;100.00;61331.59;5073328;28;31130;-63
2023/05/03 06:52:40;;;;;;;7.50;3.10;;;;;;;-144.85;100.00;61331.59;5075927;28;30558;-63
2023/05/03 06:55:07;;;;;;;7.38;3.28;;;;;;;-144.85;100.00;61331.59;5078721;28;31298;-63
2023/05/03 06:57:35;;;;;;;5.28;2.92;;;;;;;-144.85;100.00;61331.59;5078049;28;32142;-63
2023/05/03 07:00:06;;;;;;;10.88;3.58;;;;;;;-144.85;100.00;61331.59;5078615;28;30918;-63
2023/05/03 07:02:33;;;;;;;6.88;3.28;;;;;;;-144.85;100.00;61331.59;5074696;28;32336;-63
2023/05/03 07:05:01;;;;;;;9.07;3.20;;;;;;;-144.85;100.00;61331.59;5059950;28;31577;-63
2023/05/03 07:07:29;;;;;;;6.32;3.50;;;;;;;-144.85;100.00;61331.59;5068687;28;33513;-63
2023/05/03 07:09:56;;;;;;;6.20;3.78;;;;;;;-144.85;100.00;61331.59;5090291;28;32495;-63
2023/05/03 07:12:27;;;;;;;6.45;3.28;;;;;;;-144.85;100.00;61331.59;5092399;28;32854;-63
2023/05/03 07:14:55;;;;;;;7.60;2.95;;;;;;;-144.85;100.00;61331.59;5077236;28;31359;-63
2023/05/03 07:17:24;;;;;;;10.18;3.70;;;;;;;-144.85;100.00;61331.59;5077124;28;32583;-63
2023/05/03 07:19:52;;;;;;;6.60;3.33;;;;;;;-144.85;100.00;61331.59;5090862;28;32075;-65
2023/05/03 07:22:23;;;;;;;5.25;3.47;;;;;;;-144.85;100.00;61331.59;5095349;28;31916;-65
2023/05/03 07:24:53;;;;;;;6.90;3.80;;;;;;;-144.85;100.00;61331.59;5096115;28;31405;-65
2023/05/03 07:27:20;;;;;;;7.78;3.50;;;;;;;-144.85;100.00;61331.59;5079645;28;33225;-65
2023/05/03 07:29:49;;;;;;;7.93;3.58;;;;;;;-144.85;100.00;61331.59;5077251;28;32034;-65
2023/05/03 07:32:16;;;;;;;9.35;3.70;;;;;;;-144.85;100.00;61331.59;5076110;28;32011;-65
2023/05/03 07:34:43;;;;;;;5.78;3.58;;;;;;;-144.85;100.00;61331.59;5077021;28;31324;-65
2023/05/03 07:37:10;;;;;;;5.97;3.38;;;;;;;-144.85;100.00;61331.59;5089802;28;32331;-65
2023/05/03 07:39:40;;;;;;;6.40;3.13;;;;;;;-144.85;100.00;61331.59;5077305;28;32144;-65
2023/05/03 07:42:07;;;;;;;6.07;4.05;;;;;;;-144.85;100.00;61331.59;5080044;28;31540;-65
2023/05/03 07:44:35;;;;;;;6.30;3.30;;;;;;;-144.85;100.00;61331.59;5086381;28;32509;-65
2023/05/03 07:47:02;;;;;;;6.60;3.47;;;;;;;-144.85;100.00;61331.59;5072413;28;32473;-63
2023/05/03 07:49:30;;;;;;;8.23;2.83;;;;;;;-144.85;100.00;61331.59;5076797;28;30841;-62
2023/05/03 07:51:57;;;;;;;7.95;3.20;;;;;;;-144.85;100.00;61331.59;5076607;28;32973;-63
2023/05/03 07:54:30;;;;;;;7.70;2.70;;;;;;;-144.85;100.00;61331.59;5078959;28;31336;-63
2023/05/03 07:56:58;;;;;;;5.13;2.88;;;;;;;-144.85;100.00;61331.59;5076896;28;32463;-62
2023/05/03 07:59:26;;;;;;;8.00;2.80;;;;;;;-144.85;100.00;61331.59;5096070;28;32699;-62
2023/05/03 08:01:53;;;;;;;7.57;2.70;;;;;;;-144.85;100.00;61331.59;5083200;28;33078;-65
2023/05/03 08:04:23;;;;;;;6.90;2.70;;;;;;;-144.85;100.00;61331.59;5075264;28;31525;-65
2023/05/03 08:06:52;;;;;;;6.90;2.85;;;;;;;-144.85;100.00;61331.59;5098606;28;31456;-65
2023/05/03 08:09:21;;;;;;;4.22;2.83;;;;;;;-144.85;100.00;61331.59;5067781;28;30879;-65
2023/05/03 08:11:50;;;;;;;4.68;2.90;;;;;;;-144.85;100.00;61331.59;5078374;28;31932;-65
2023/05/03 08:14:18;;;;;;;7.22;2.60;;;;;;;-144.85;100.00;61331.59;5081510;28;30477;-65
2023/05/03 08:16:46;;;;;;;4.97;2.95;;;;;;;-144.85;100.00;61331.59;5091293;28;32682;-65
2023/05/03 08:19:13;;;;;;;5.90;3.10;;;;;;;-144.85;100.00;61331.59;5076763;28;32382;-65
2023/05/03 08:21:41;;;;;;;7.20;2.88;;;;;;;-144.85;100.00;61331.59;5061458;28;32300;-65
2023/05/03 08:24:09;;;;;;;6.55;2.50;;;;;;;-144.85;100.00;61331.59;5087730;28;31678;-65
2023/05/03 08:26:37;;;;;;;6.43;2.83;;;;;;;-144.85;100.00;61331.59;5096139;28;31405;-65
2023/05/03 08:29:04;;;;;;;5.25;2.65;;;;;;;-144.85;100.00;61331.59;5082264;28;33253;-65
2023/05/03 08:31:32;;;;;;;4.03;2.20;;;;;;;-144.85;100.00;61331.59;5068869;28;32184;-65
2023/05/03 08:34:00;;;;;;;6.97;2.70;;;;;;;-144.85;100.00;61331.59;5078158;28;31640;-65
2023/05/03 08:36:27;;;;;;;5.45;2.78;;;;;;;-144.85;100.00;61331.59;5096027;22;33178;-83
2023/05/03 08:38:54;;;;;;;4.97;2.60;;;;;;;-144.85;100.00;61331.59;5091701;28;32576;-84
2023/05/03 08:41:27;;;;;;;4.18;2.60;;;;;;;-144.85;100.00;61331.59;5087152;28;32898;-84
2023/05/03 08:43:58;;;;;;;4.15;2.60;;;;;;;-144.85;100.00;61331.59;5094924;28;31253;-83
2023/05/03 08:46:26;;;;;;;8.57;2.95;;;;;;;-144.85;100.00;61331.59;5086775;28;31938;-85
2023/05/03 08:48:54;;;;;;;4.78;2.88;;;;;;;-144.85;100.00;61331.59;5077680;28;32889;-83
2023/05/03 08:51:22;;;;;;;5.78;3.22;;;;;;;-144.85;100.00;61331.59;5065039;28;31812;-83
2023/05/03 08:53:50;;;;;;;4.82;2.80;;;;;;;-144.85;100.00;61331.59;5076458;28;31077;-83
2023/05/03 08:56:24;;;;;;;5.72;2.33;;;;;;;-144.85;100.00;61331.59;5076152;28;32470;-83
2023/05/03 08:58:52;;;;;;;5.30;2.80;;;;;;;-144.85;100.00;61331.59;5073282;28;32902;-84
2023/05/03 09:01:19;;;;;;;5.15;2.53;;;;;;;-144.85;100.00;61331.59;5083627;28;31827;-83
2023/05/03 09:03:50;;;;;;;4.43;2.72;;;;;;;-144.85;100.00;61331.59;5103756;28;30984;-83
2023/05/03 09:06:20;;;;;;;6.28;2.70;;;;;;;-144.85;100.00;61331.59;5067252;28;31636;-84
2023/05/03 09:08:47;;;;;;;3.85;2.40;;;;;;;-144.85;100.00;61331.59;5087254;28;31182;-84
2023/05/03 09:11:22;;;;;;;8.73;2.92;;;;;;;-144.85;100.00;61331.59;5079982;28;32670;-84
2023/05/03 09:13:53;;;;;;;7.22;2.58;;;;;;;-144.85;100.00;61331.59;5091703;28;31369;-84
2023/05/03 09:16:28;;;;;;;5.38;2.90;;;;;;;-144.85;100.00;61331.59;5095015;28;32242;-83
2023/05/03 09:19:10;;;;;;;5.25;2.50;;;;;;;-144.85;100.00;61331.59;5087667;28;32382;-82
2023/05/03 09:21:39;;;;;;;4.65;2.45;;;;;;;-144.85;100.00;61331.59;5083845;28;31876;-84
2023/05/03 09:24:14;;;;;;;5.25;2.47;;;;;;;-144.85;100.00;61331.59;5094464;28;31824;-85
2023/05/03 09:26:42;;;;;;;5.03;2.67;;;;;;;-144.85;100.00;61331.59;5092394;28;31983;-84
2023/05/03 09:29:09;;;;;;;7.40;2.70;;;;;;;-144.85;100.00;61331.59;5070798;28;31373;-84
2023/05/03 09:31:36;;;;;;;4.50;2.35;;;;;;;-144.85;100.00;61331.59;5095758;28;31522;-84
2023/05/03 09:34:21;;;;;;;5.68;3.10;;;;;;;-144.85;100.00;61331.59;5079463;28;31910;-85
2023/05/03 09:36:48;;;;;;;9.27;2.67;;;;;;;-144.85;100.00;61331.59;5078963;28;31987;-83
2023/05/03 09:39:17;;;;;;;6.53;3.35;;;;;;;-144.85;100.00;61331.59;5079604;28;32083;-85
2023/05/03 09:41:45;;;;;;;5.88;2.70;;;;;;;-144.85;100.00;61331.59;5072283;28;32288;-84
2023/05/03 09:44:12;;;;;;;5.53;2.88;;;;;;;-144.85;100.00;61331.59;5087180;28;31591;-85
2023/05/03 09:47:06;;;;;;;5.05;2.60;;;;;;;-144.85;100.00;61331.59;5100635;28;32985;-83
2023/05/03 09:49:33;;;;;;;7.60;2.75;;;;;;;-144.85;100.00;61331.59;5084604;28;31258;-83
2023/05/03 09:52:01;;;;;;;7.03;2.53;;;;;;;-144.85;100.00;61331.59;5080016;28;32076;-83
2023/05/03 09:54:34;;;;;;;6.40;2.78;;;;;;;-144.85;100.00;61331.59;5064990;28;31066;-83
2023/05/03 09:57:03;;;;;;;10.60;2.97;;;;;;;-144.85;100.00;61331.59;5077405;28;32483;-83
2023/05/03 09:59:32;;;;;;;5.28;3.00;;;;;;;-144.85;100.00;61331.59;5085469;28;33185;-84
2023/05/03 10:02:02;;;;;;;4.75;2.88;;;;;;;-144.85;100.00;61331.59;5083433;28;31906;-83
2023/05/03 10:04:42;;;;;;;6.03;2.97;;;;;;;-144.85;100.00;61331.59;5102773;28;30098;-83
2023/05/03 10:07:16;;;;;;;8.50;3.03;;;;;;;-144.85;100.00;61331.59;5083085;28;31296;-84
2023/05/03 10:09:47;;;;;;;5.77;2.80;;;;;;;-144.85;100.00;61331.59;5086485;28;31711;-83
2023/05/03 10:12:17;;;;;;;6.80;2.90;;;;;;;-144.85;100.00;61331.59;5071320;28;31176;-84
2023/05/03 10:14:46;;;;;;;7.82;2.78;;;;;;;-144.85;100.00;61331.59;5078231;28;30635;-83
2023/05/03 10:17:36;;;;;;;5.30;3.05;;;;;;;-144.85;100.00;61331.59;5077687;28;31608;-83
2023/05/03 10:20:38;;;;;;;7.25;2.90;;;;;;;-144.85;100.00;61331.59;5075844;28;32686;-83
2023/05/03 10:23:13;;;;;;;9.40;3.63;;;;;;;-144.85;100.00;61331.59;5089831;28;32710;-83
2023/05/03 10:26:12;;;;;;;10.45;3.75;;;;;;;-144.85;100.00;61331.59;5098601;28;30931;-83
2023/05/03 10:28:39;;;;;;;9.70;3.20;;;;;;;-144.85;100.00;61331.59;5098359;28;32479;-83
2023/05/03 10:31:45;;;;;;;7.57;2.88;;;;;;;-144.85;100.00;61331.59;5090053;28;32071;-84
2023/05/03 10:34:23;;;;;;;6.45;3.17;;;;;;;-144.85;100.00;61331.59;5062199;28;32341;-83
2023/05/03 10:36:52;;;;;;;6.53;3.20;;;;;;;-144.85;100.00;61331.59;5090532;28;31635;-82
2023/05/03 10:39:20;;;;;;;7.22;3.33;;;;;;;-144.85;100.00;61331.59;5078192;28;31121;-83
2023/05/03 10:42:06;;;;;;;6.10;3.08;;;;;;;-144.85;100.00;61331.59;5074596;28;31316;-81
2023/05/03 10:44:37;;;;;;;9.07;3.40;;;;;;;-144.85;100.00;61331.59;5077765;28;30523;-83
2023/05/03 10:47:15;;;;;;;7.40;3.42;;;;;;;-144.85;100.00;61331.59;5078852;28;31857;-84
2023/05/03 10:49:42;;;;;;;6.10;3.45;;;;;;;-144.85;100.00;61331.59;5087075;28;31789;-83
2023/05/03 10:52:35;;;;;;;6.38;3.35;;;;;;;-144.85;100.00;61331.59;5077673;28;31352;-84
2023/05/03 10:55:08;;;;;;;8.25;3.50;;;;;;;-144.85;100.00;61331.59;5076264;28;32273;-83
2023/05/03 10:57:38;;;;;;;5.30;3.10;;;;;;;-144.85;100.00;61331.59;5074108;28;32004;-83
2023/05/03 11:00:12;;;;;;;4.32;2.67;;;;;;;-144.85;100.00;61331.59;5079435;28;32079;-83
2023/05/03 11:03:04;;;;;;;5.60;2.80;;;;;;;-144.85;100.00;61331.59;5091543;28;30976;-84
2023/05/03 11:05:32;;;;;;;7.45;3.40;;;;;;;-144.85;100.00;61331.59;5092984;28;32940;-83
2023/05/03 11:08:36;;;;;;;7.28;3.30;;;;;;;-144.85;100.00;61331.59;5084706;28;32066;-83
2023/05/03 11:11:08;;;;;;;6.28;3.03;;;;;;;-144.85;100.00;61331.59;5063239;28;31041;-84
2023/05/03 11:13:36;;;;;;;6.07;2.90;;;;;;;-144.85;100.00;61331.59;5077714;28;33004;-83
2023/05/03 11:16:04;;;;;;;6.47;3.00;;;;;;;-144.85;100.00;61331.59;5076937;28;31813;-84
2023/05/03 11:18:32;;;;;;;8.32;3.35;;;;;;;-144.85;100.00;61331.59;5076742;28;31435;-83
2023/05/03 11:20:59;;;;;;;6.07;3.28;;;;;;;-144.85;100.00;61331.59;5071050;28;31520;-84
2023/05/03 11:23:27;;;;;;;8.73;3.25;;;;;;;-144.85;100.00;61331.59;5094399;28;32741;-83